DAOO

Es Senia Airport

Oran, Algeria
METAR DAOO 222100Z 12002KT 6000 NSC 20/18 Q1021
Observed Flight Rules
Oct-22 @ 21:00 UTC (34 minutes ago) Marginal Visual Flight Rules
Wind Visibility Clouds
120° at 2 knots 6,003 meters
  • Clear skies
Temperatures Readings
Current 20°C / 68°F
Dewpoint 18°C / 64°F
Humidity 88%
Altimeter 30.15" Hg
Pressure 1021 hPa
Elevation 90
METAR DAOO 222100Z 12002KT 6000 NSC 20/18 Q1021
Observed Flight Rules
Oct-22 @ 21:00 UTC
(34 minutes ago)
MVFR
Wind Visibility
120° at 2 knots 6,003 meters
Clouds
  • Clear skies
Temperature Dewpoint
20°C / 68°F 18°C / 64°F
Humidity Altimeter Pressure
88% 30.15" Hg 1021 hPa